createdAt,value
2023-07-22T00:00:00.947Z,8.95
2023-07-22T00:02:29.015Z,6.25
2023-07-22T00:04:57.143Z,6.90
2023-07-22T00:07:25.159Z,7.28
2023-07-22T00:09:53.183Z,8.98
2023-07-22T00:12:21.200Z,7.93
2023-07-22T00:14:49.186Z,6.53
2023-07-22T00:17:18.751Z,6.90
2023-07-22T00:19:46.837Z,6.97
2023-07-22T00:22:14.822Z,6.03
2023-07-22T00:24:42.871Z,7.45
2023-07-22T00:27:11.569Z,7.15
2023-07-22T00:29:39.593Z,7.40
2023-07-22T00:32:09.924Z,8.77
2023-07-22T00:34:39.329Z,7.53
2023-07-22T00:37:07.426Z,7.82
2023-07-22T00:39:35.359Z,8.07
2023-07-22T00:42:03.312Z,6.68
2023-07-22T00:44:31.677Z,7.28
2023-07-22T00:47:00.437Z,9.18
2023-07-22T00:49:29.964Z,8.40
2023-07-22T00:52:02.855Z,7.57
2023-07-22T00:54:32.073Z,6.78
2023-07-22T00:57:00.405Z,6.72
2023-07-22T00:59:29.191Z,7.15
2023-07-22T01:01:57.258Z,7.13
2023-07-22T01:04:26.433Z,5.93
2023-07-22T01:06:55.324Z,10.25
2023-07-22T01:09:24.693Z,7.72
2023-07-22T01:11:52.666Z,6.93
2023-07-22T01:14:20.640Z,8.52
2023-07-22T01:16:48.837Z,7.03
2023-07-22T01:19:20.006Z,7.78
2023-07-22T01:21:50.361Z,8.38
2023-07-22T01:24:20.104Z,8.98
2023-07-22T01:26:49.017Z,8.38
2023-07-22T01:29:17.059Z,6.85
2023-07-22T01:31:49.317Z,7.28
2023-07-22T01:34:18.168Z,6.97
2023-07-22T01:36:48.608Z,7.25
2023-07-22T01:39:16.944Z,7.30
2023-07-22T01:41:46.676Z,7.28
2023-07-22T01:44:14.704Z,6.97
2023-07-22T01:46:43.274Z,7.30
2023-07-22T01:49:13.792Z,7.90
2023-07-22T01:51:42.561Z,10.07
2023-07-22T01:54:11.463Z,7.22
2023-07-22T01:56:39.937Z,7.28
2023-07-22T01:59:11.323Z,7.18
2023-07-22T02:01:39.833Z,7.63
2023-07-22T02:04:08.102Z,6.95
2023-07-22T02:06:36.572Z,7.97
2023-07-22T02:09:09.730Z,7.90
2023-07-22T02:11:38.050Z,10.88
2023-07-22T02:14:08.340Z,7.28
2023-07-22T02:16:38.974Z,8.40
2023-07-22T02:19:07.669Z,9.20
2023-07-22T02:21:35.776Z,8.70
2023-07-22T02:24:03.817Z,7.57
2023-07-22T02:26:31.921Z,8.45
2023-07-22T02:28:59.930Z,9.27
2023-07-22T02:31:28.059Z,9.00
2023-07-22T02:33:57.493Z,7.75
2023-07-22T02:36:25.775Z,8.15
2023-07-22T02:38:54.150Z,10.27
2023-07-22T02:41:22.975Z,8.05
2023-07-22T02:43:51.165Z,8.18
2023-07-22T02:46:19.306Z,7.72
2023-07-22T02:48:47.475Z,7.68
2023-07-22T02:51:16.881Z,8.25
2023-07-22T02:53:45.815Z,9.73
2023-07-22T02:56:14.239Z,8.68
2023-07-22T02:58:43.103Z,10.95
2023-07-22T03:01:11.592Z,8.27
2023-07-22T03:03:41.170Z,10.57
2023-07-22T03:06:10.928Z,7.65
2023-07-22T03:08:40.414Z,10.10
2023-07-22T03:11:08.561Z,9.07
2023-07-22T03:13:36.637Z,8.13
2023-07-22T03:16:05.933Z,8.60
2023-07-22T03:18:34.147Z,8.57
2023-07-22T03:21:02.235Z,8.77
2023-07-22T03:23:30.345Z,10.85
2023-07-22T03:25:59.718Z,8.32
2023-07-22T03:28:28.084Z,8.45
2023-07-22T03:30:56.152Z,9.38
2023-07-22T03:33:24.208Z,8.73
2023-07-22T03:35:52.285Z,9.80
2023-07-22T03:38:20.332Z,10.55
2023-07-22T03:40:48.699Z,8.63
2023-07-22T03:43:18.436Z,8.93
2023-07-22T03:45:46.573Z,10.13
2023-07-22T03:48:14.764Z,8.68
2023-07-22T03:50:42.830Z,9.65
2023-07-22T03:53:10.862Z,8.95
2023-07-22T03:55:38.882Z,9.27
2023-07-22T03:58:06.832Z,9.55
2023-07-22T04:00:36.281Z,14.88
2023-07-22T04:03:04.653Z,10.40
2023-07-22T04:05:32.791Z,11.20
2023-07-22T04:08:00.783Z,11.35
2023-07-22T04:10:28.728Z,8.80
2023-07-22T04:12:56.801Z,9.77
2023-07-22T04:15:24.924Z,9.98
2023-07-22T04:17:55.155Z,10.07
2023-07-22T04:20:25.495Z,11.00
2023-07-22T04:22:53.492Z,12.35
2023-07-22T04:25:21.624Z,13.77
2023-07-22T04:27:49.809Z,12.35
2023-07-22T04:30:21.801Z,10.05
2023-07-22T04:32:50.487Z,14.50
2023-07-22T04:35:20.175Z,8.95
2023-07-22T04:37:48.627Z,12.45
2023-07-22T04:40:19.458Z,11.95
2023-07-22T04:42:47.708Z,10.48
2023-07-22T04:45:15.797Z,9.80
2023-07-22T04:47:45.690Z,11.55
2023-07-22T04:50:14.012Z,10.18
2023-07-22T04:52:44.795Z,10.88
2023-07-22T04:55:13.310Z,10.57
2023-07-22T04:57:42.437Z,11.27
2023-07-22T05:00:13.253Z,13.75
2023-07-22T05:02:41.467Z,9.93
2023-07-22T05:05:10.721Z,12.70
2023-07-22T05:07:38.785Z,10.05
2023-07-22T05:10:13.338Z,9.85
2023-07-22T05:12:41.783Z,9.30
2023-07-22T05:15:12.202Z,9.30
2023-07-22T05:17:40.594Z,11.35
2023-07-22T05:20:11.279Z,9.02
2023-07-22T05:22:39.650Z,9.25
2023-07-22T05:25:10.848Z,12.32
2023-07-22T05:27:39.325Z,13.30
2023-07-22T05:30:16.084Z,11.57
2023-07-22T05:32:48.418Z,11.07
2023-07-22T05:35:16.495Z,9.55
2023-07-22T05:37:44.433Z,9.73
2023-07-22T05:40:14.101Z,8.95
2023-07-22T05:42:42.385Z,11.13
2023-07-22T05:45:14.876Z,8.13
2023-07-22T05:47:43.079Z,10.93
2023-07-22T05:50:11.783Z,9.25
2023-07-22T05:52:40.325Z,10.70
2023-07-22T05:55:08.814Z,10.85
2023-07-22T05:57:38.612Z,12.13
2023-07-22T06:00:09.981Z,10.60
2023-07-22T06:02:38.649Z,11.18
2023-07-22T06:05:07.254Z,9.52
2023-07-22T06:07:35.439Z,9.07
2023-07-22T06:10:03.952Z,9.90
2023-07-22T06:12:32.270Z,10.25
2023-07-22T06:15:02.162Z,12.20
2023-07-22T06:17:30.249Z,10.73
2023-07-22T06:19:58.617Z,9.35
2023-07-22T06:22:26.692Z,9.80
2023-07-22T06:24:54.869Z,10.05
2023-07-22T06:27:23.251Z,11.00
2023-07-22T06:29:51.279Z,12.00
2023-07-22T06:32:20.858Z,14.52
2023-07-22T06:34:48.880Z,10.85
2023-07-22T06:37:16.893Z,13.02
2023-07-22T06:39:44.921Z,9.45
2023-07-22T06:42:12.853Z,11.23
2023-07-22T06:44:41.204Z,11.38
2023-07-22T06:47:09.431Z,10.35
2023-07-22T06:49:38.978Z,10.15
2023-07-22T06:52:08.537Z,11.05
2023-07-22T06:54:37.287Z,10.35
2023-07-22T06:57:07.391Z,9.57
2023-07-22T06:59:35.486Z,10.63
2023-07-22T07:02:03.533Z,10.27
2023-07-22T07:04:31.618Z,9.15
2023-07-22T07:07:01.444Z,13.73
2023-07-22T07:09:47.868Z,14.18
2023-07-22T07:12:15.962Z,12.07
2023-07-22T07:14:44.451Z,10.40
2023-07-22T07:17:12.610Z,11.07
2023-07-22T07:19:40.648Z,11.05
2023-07-22T07:22:10.338Z,9.50
2023-07-22T07:24:38.532Z,10.85
2023-07-22T07:27:07.340Z,11.38
2023-07-22T07:29:51.942Z,11.32
2023-07-22T07:32:21.680Z,11.73
2023-07-22T07:34:49.858Z,13.73
2023-07-22T07:37:19.438Z,10.73
2023-07-22T07:39:47.578Z,11.18
2023-07-22T07:42:15.616Z,12.00
2023-07-22T07:44:44.790Z,10.60
2023-07-22T07:47:12.885Z,11.05
2023-07-22T07:49:41.750Z,12.20
2023-07-22T07:52:09.894Z,11.55
2023-07-22T07:54:39.409Z,10.70
2023-07-22T07:57:08.538Z,11.43
2023-07-22T07:59:39.390Z,11.55
2023-07-22T08:02:10.851Z,11.85
2023-07-22T08:04:38.915Z,10.85
2023-07-22T08:07:09.025Z,11.55
2023-07-22T08:09:37.431Z,23.70
2023-07-22T08:12:07.572Z,11.60
2023-07-22T08:14:35.841Z,11.70
2023-07-22T08:17:05.129Z,10.52
2023-07-22T08:19:33.267Z,11.50
2023-07-22T08:22:01.722Z,11.57
2023-07-22T08:24:29.857Z,13.02
2023-07-22T08:26:57.952Z,12.43
2023-07-22T08:29:27.815Z,12.88
2023-07-22T08:31:55.922Z,12.50
2023-07-22T08:34:24.127Z,11.98
2023-07-22T08:36:53.871Z,13.10
2023-07-22T08:39:21.881Z,11.55
2023-07-22T08:41:51.382Z,13.82
2023-07-22T08:44:24.801Z,13.88
2023-07-22T08:46:58.532Z,13.23
2023-07-22T08:49:27.923Z,14.65
2023-07-22T08:51:57.992Z,13.55
2023-07-22T08:54:26.449Z,13.20
2023-07-22T08:56:55.906Z,12.23
2023-07-22T08:59:24.340Z,12.82
2023-07-22T09:01:55.098Z,14.10
2023-07-22T09:04:23.227Z,16.50
2023-07-22T09:06:51.969Z,13.90
2023-07-22T09:09:20.397Z,14.73
2023-07-22T09:11:49.510Z,16.30
2023-07-22T09:14:35.821Z,13.68
2023-07-22T09:17:07.481Z,12.63
2023-07-22T09:19:35.511Z,14.35
2023-07-22T09:22:03.860Z,13.05
2023-07-22T09:24:31.964Z,12.30
2023-07-22T09:27:01.724Z,12.25
2023-07-22T09:29:37.538Z,14.30
2023-07-22T09:32:07.738Z,11.93
2023-07-22T09:34:35.800Z,15.43
2023-07-22T09:37:05.046Z,14.50
2023-07-22T09:39:33.465Z,12.10
2023-07-22T09:42:03.230Z,16.38
2023-07-22T09:44:34.115Z,12.32
2023-07-22T09:47:09.077Z,16.23
2023-07-22T09:49:42.675Z,12.27
2023-07-22T09:52:14.683Z,13.48
2023-07-22T09:54:50.011Z,12.93
2023-07-22T09:57:19.058Z,12.82
2023-07-22T09:59:50.017Z,13.27
2023-07-22T10:02:21.451Z,13.25
2023-07-22T10:04:53.437Z,15.65
2023-07-22T10:07:22.920Z,21.73
2023-07-22T10:09:51.899Z,14.93
2023-07-22T10:12:19.991Z,18.05
2023-07-22T10:14:48.831Z,18.45
2023-07-22T10:17:18.075Z,13.57
2023-07-22T10:19:47.797Z,16.02
2023-07-22T10:22:16.406Z,13.18
2023-07-22T10:24:47.705Z,12.68
2023-07-22T10:27:19.084Z,14.65
2023-07-22T10:29:48.187Z,15.35
2023-07-22T10:32:18.375Z,12.52
2023-07-22T10:34:47.821Z,13.02
2023-07-22T10:37:15.923Z,13.73
2023-07-22T10:39:43.980Z,16.40
2023-07-22T10:42:25.739Z,13.52
2023-07-22T10:44:54.241Z,15.15
2023-07-22T10:47:34.251Z,15.77
2023-07-22T10:50:15.752Z,19.65
2023-07-22T10:52:45.998Z,16.88
2023-07-22T10:55:18.646Z,24.98
2023-07-22T10:57:54.379Z,15.20
2023-07-22T11:00:23.411Z,17.65
2023-07-22T11:03:13.771Z,14.15
2023-07-22T11:05:57.207Z,14.45
2023-07-22T11:08:39.011Z,19.17
2023-07-22T11:11:07.462Z,17.77
2023-07-22T11:13:40.757Z,21.67
2023-07-22T11:16:13.208Z,18.95
2023-07-22T11:18:42.459Z,16.85
2023-07-22T11:21:12.497Z,22.98
2023-07-22T11:23:40.496Z,15.75
2023-07-22T11:26:08.512Z,20.33
2023-07-22T11:28:36.587Z,17.38
2023-07-22T11:31:04.669Z,16.27
2023-07-22T11:33:40.986Z,23.85
2023-07-22T11:36:09.064Z,16.75
2023-07-22T11:38:39.948Z,17.17
2023-07-22T11:41:08.118Z,19.73
2023-07-22T11:43:36.794Z,15.90
2023-07-22T11:46:07.498Z,15.77
2023-07-22T11:48:35.645Z,18.02
2023-07-22T11:51:03.949Z,15.40
2023-07-22T11:53:31.966Z,14.70
2023-07-22T11:56:02.153Z,19.40
2023-07-22T11:58:31.529Z,18.58
2023-07-22T12:01:08.836Z,16.15
2023-07-22T12:03:37.192Z,17.05
2023-07-22T12:06:05.768Z,16.10
2023-07-22T12:08:34.598Z,17.60
2023-07-22T12:11:05.229Z,15.25
2023-07-22T12:13:38.741Z,20.65
2023-07-22T12:16:08.257Z,15.90
2023-07-22T12:18:46.364Z,16.23
2023-07-22T12:21:14.805Z,14.57
2023-07-22T12:23:44.141Z,18.05
2023-07-22T12:26:13.510Z,18.58
2023-07-22T12:28:41.725Z,16.00
2023-07-22T12:31:10.824Z,13.70
2023-07-22T12:33:39.010Z,13.73
2023-07-22T12:36:07.564Z,17.63
2023-07-22T12:38:35.779Z,14.35
2023-07-22T12:41:04.286Z,14.07
2023-07-22T12:43:34.611Z,19.35
2023-07-22T12:46:02.669Z,16.83
2023-07-22T12:48:31.512Z,16.70
2023-07-22T12:50:59.735Z,13.68
2023-07-22T12:53:28.564Z,16.15
2023-07-22T12:55:57.771Z,15.93
2023-07-22T12:58:25.956Z,19.73
2023-07-22T13:00:55.461Z,15.60
2023-07-22T13:03:23.676Z,21.92
2023-07-22T13:05:51.765Z,18.05
2023-07-22T13:08:19.785Z,13.32
2023-07-22T13:10:48.489Z,18.10
2023-07-22T13:13:16.638Z,15.07
2023-07-22T13:15:44.710Z,20.10
2023-07-22T13:18:14.914Z,17.83
2023-07-22T13:20:43.076Z,15.02
2023-07-22T13:23:11.297Z,17.77
2023-07-22T13:25:39.406Z,19.02
2023-07-22T13:28:10.279Z,13.93
2023-07-22T13:30:38.396Z,12.80
2023-07-22T13:33:06.481Z,17.48
2023-07-22T13:35:35.919Z,20.13
2023-07-22T13:38:03.991Z,20.17
2023-07-22T13:40:32.101Z,14.88
2023-07-22T13:43:00.231Z,17.25
2023-07-22T13:45:28.844Z,19.95
2023-07-22T13:47:57.029Z,18.30
2023-07-22T13:50:25.228Z,15.48
2023-07-22T13:52:54.715Z,17.55
2023-07-22T13:55:22.917Z,16.02
2023-07-22T13:57:50.920Z,19.25
2023-07-22T14:00:19.497Z,17.63
2023-07-22T14:02:47.727Z,18.05
2023-07-22T14:05:15.811Z,19.90
2023-07-22T14:07:43.824Z,22.95
2023-07-22T14:10:13.621Z,15.52
2023-07-22T14:12:41.683Z,15.52
2023-07-22T14:15:11.384Z,20.45
2023-07-22T14:17:40.134Z,18.85
2023-07-22T14:20:09.242Z,18.65
2023-07-22T14:22:37.302Z,14.63
2023-07-22T14:25:06.043Z,15.45
2023-07-22T14:27:36.093Z,15.38
2023-07-22T14:30:05.318Z,18.85
2023-07-22T14:32:33.558Z,20.05
2023-07-22T14:35:01.728Z,16.85
2023-07-22T14:37:30.207Z,17.55
2023-07-22T14:39:58.243Z,16.52
2023-07-22T14:42:26.322Z,21.08
2023-07-22T14:44:55.787Z,16.27
2023-07-22T14:47:23.901Z,16.38
2023-07-22T14:49:53.494Z,19.90
2023-07-22T14:52:21.884Z,18.65
2023-07-22T14:54:50.258Z,22.15
2023-07-22T14:57:19.397Z,16.50
2023-07-22T14:59:49.753Z,14.15
2023-07-22T15:02:19.354Z,14.43
2023-07-22T15:04:47.349Z,16.73
2023-07-22T15:07:15.510Z,16.65
2023-07-22T15:09:43.588Z,12.88
2023-07-22T15:12:11.662Z,15.80
2023-07-22T15:14:41.914Z,18.25
2023-07-22T15:19:58.498Z,16.98
2023-07-22T15:22:32.829Z,20.77
2023-07-22T15:25:03.595Z,13.80
2023-07-22T15:27:31.598Z,20.50
2023-07-22T15:29:59.630Z,20.63
2023-07-22T15:32:28.309Z,15.65
2023-07-22T15:34:57.783Z,19.40
2023-07-22T15:37:26.047Z,14.07
2023-07-22T15:39:54.198Z,26.42
2023-07-22T15:42:22.214Z,24.65
2023-07-22T15:44:50.325Z,21.70
2023-07-22T15:47:18.808Z,18.50
2023-07-22T15:49:47.016Z,21.15
2023-07-22T15:52:16.396Z,21.33
2023-07-22T15:54:47.571Z,19.70
2023-07-22T15:57:17.986Z,20.55
2023-07-22T15:59:47.967Z,16.08
2023-07-22T16:02:16.446Z,23.73
2023-07-22T16:04:44.809Z,14.88
2023-07-22T16:07:12.868Z,17.00
2023-07-22T16:09:42.529Z,18.90
2023-07-22T16:12:11.220Z,17.17
2023-07-22T16:14:39.510Z,17.83
2023-07-22T16:17:07.911Z,16.67
2023-07-22T16:19:36.122Z,14.60
2023-07-22T16:22:04.296Z,17.98
2023-07-22T16:24:32.445Z,17.67
2023-07-22T16:27:02.237Z,16.60
2023-07-22T16:29:30.238Z,16.65
2023-07-22T16:31:58.343Z,16.83
2023-07-22T16:34:26.587Z,15.63
2023-07-22T16:36:54.679Z,14.40
2023-07-22T16:39:24.052Z,15.30
2023-07-22T16:41:52.458Z,25.63
2023-07-22T16:44:23.690Z,13.82
2023-07-22T16:46:51.791Z,19.30
2023-07-22T16:49:19.864Z,17.92
2023-07-22T16:51:48.337Z,11.35
2023-07-22T16:54:16.410Z,9.98
2023-07-22T16:56:44.482Z,11.75
2023-07-22T16:59:14.167Z,13.88
2023-07-22T17:01:43.720Z,12.07
2023-07-22T17:04:12.217Z,18.67
2023-07-22T17:06:40.809Z,11.45
2023-07-22T17:09:09.334Z,14.07
2023-07-22T17:11:37.389Z,12.00
2023-07-22T17:14:05.471Z,10.10
2023-07-22T17:16:33.484Z,13.00
2023-07-22T17:19:03.153Z,13.45
2023-07-22T17:21:31.705Z,14.13
2023-07-22T17:23:59.668Z,9.32
2023-07-22T17:26:27.714Z,11.88
2023-07-22T17:28:55.824Z,12.45
2023-07-22T17:31:24.196Z,12.57
2023-07-22T17:33:52.308Z,11.15
2023-07-22T17:36:21.775Z,12.23
2023-07-22T17:38:49.977Z,11.55
2023-07-22T17:41:18.211Z,14.70
2023-07-22T17:43:46.211Z,13.43
2023-07-22T17:46:14.456Z,15.82
2023-07-22T17:48:42.475Z,13.10
2023-07-22T17:51:10.440Z,15.63
2023-07-22T17:53:40.250Z,13.90
2023-07-22T17:56:08.370Z,13.18
2023-07-22T17:58:36.356Z,16.40
2023-07-22T18:01:04.719Z,24.40
2023-07-22T18:03:33.279Z,14.90
2023-07-22T18:06:01.301Z,14.68
2023-07-22T18:08:29.304Z,13.45
2023-07-22T18:10:59.006Z,11.07
2023-07-22T18:13:27.076Z,11.55
2023-07-22T18:15:55.111Z,10.38
2023-07-22T18:18:23.300Z,14.30
2023-07-22T18:20:51.276Z,10.75
2023-07-22T18:23:19.271Z,15.15
2023-07-22T18:25:47.225Z,8.77
2023-07-22T18:28:16.599Z,8.45
2023-07-22T18:30:44.638Z,10.93
2023-07-22T18:33:12.761Z,8.85
2023-07-22T18:35:40.854Z,10.02
2023-07-22T18:38:09.225Z,9.70
2023-07-22T18:40:37.242Z,12.65
2023-07-22T18:43:05.400Z,9.18
2023-07-22T18:45:34.867Z,8.10
2023-07-22T18:48:03.937Z,9.50
2023-07-22T18:50:33.692Z,11.00
2023-07-22T18:53:01.737Z,5.75
2023-07-22T18:55:29.781Z,11.88
2023-07-22T18:57:57.846Z,11.13
2023-07-22T19:00:28.299Z,10.60
2023-07-22T19:02:58.612Z,8.55
2023-07-22T19:05:26.716Z,8.07
2023-07-22T19:07:54.879Z,8.43
2023-07-22T19:10:22.953Z,7.35
2023-07-22T19:12:51.015Z,10.65
2023-07-22T19:15:21.132Z,10.13
2023-07-22T19:17:49.461Z,8.48
2023-07-22T19:20:19.211Z,10.88
2023-07-22T19:22:47.462Z,12.93
2023-07-22T19:25:15.617Z,8.80
2023-07-22T19:27:43.745Z,7.40
2023-07-22T19:30:14.361Z,9.13
2023-07-22T19:32:42.469Z,8.48
2023-07-22T19:35:10.853Z,12.63
2023-07-22T19:37:40.295Z,8.05
2023-07-22T19:40:10.055Z,8.85
2023-07-22T19:42:38.048Z,9.93
2023-07-22T19:45:06.953Z,9.45
2023-07-22T19:47:35.279Z,10.25
2023-07-22T19:50:03.466Z,9.98
2023-07-22T19:52:31.498Z,8.45
2023-07-22T19:55:00.896Z,11.30
2023-07-22T19:57:28.986Z,9.93
2023-07-22T19:59:57.786Z,11.00
2023-07-22T20:02:26.030Z,8.65
2023-07-22T20:04:54.317Z,8.38
2023-07-22T20:07:22.350Z,10.27
2023-07-22T20:09:50.373Z,9.93
2023-07-22T20:12:19.762Z,7.43
2023-07-22T20:14:47.862Z,7.82
2023-07-22T20:17:15.884Z,10.13
2023-07-22T20:19:43.940Z,8.77
2023-07-22T20:22:12.449Z,10.98
2023-07-22T20:24:40.763Z,9.52
2023-07-22T20:27:08.860Z,10.77
2023-07-22T20:29:38.322Z,10.15
2023-07-22T20:32:12.493Z,9.93
2023-07-22T20:34:47.584Z,7.93
2023-07-22T20:37:15.613Z,7.55
2023-07-22T20:39:43.620Z,8.48
2023-07-22T20:42:11.693Z,8.55
2023-07-22T20:44:41.071Z,9.43
2023-07-22T20:47:09.148Z,8.95
2023-07-22T20:49:37.190Z,8.30
2023-07-22T20:52:05.875Z,10.68
2023-07-22T20:54:33.991Z,8.13
2023-07-22T20:57:02.017Z,6.80
2023-07-22T20:59:29.961Z,7.78
2023-07-22T21:01:59.407Z,10.55
2023-07-22T21:04:27.432Z,9.20
2023-07-22T21:06:55.422Z,12.38
2023-07-22T21:09:23.437Z,9.57
2023-07-22T21:11:51.435Z,8.18
2023-07-22T21:14:19.428Z,8.10
2023-07-22T21:16:47.472Z,10.27
2023-07-22T21:19:16.882Z,8.95
2023-07-22T21:21:46.179Z,7.05
2023-07-22T21:24:14.615Z,8.60
2023-07-22T21:26:42.642Z,8.88
2023-07-22T21:29:10.608Z,8.13
2023-07-22T21:31:38.616Z,8.85
2023-07-22T21:34:15.111Z,7.28
2023-07-22T21:36:45.104Z,9.35
2023-07-22T21:39:13.131Z,6.90
2023-07-22T21:41:41.398Z,10.43
2023-07-22T21:44:09.597Z,7.63
2023-07-22T21:46:40.286Z,9.07
2023-07-22T21:49:09.487Z,7.22
2023-07-22T21:51:39.193Z,9.98
2023-07-22T21:54:08.597Z,8.23
2023-07-22T21:56:36.698Z,9.32
2023-07-22T21:59:04.793Z,6.65
2023-07-22T22:01:32.943Z,9.63
2023-07-22T22:04:01.006Z,7.93
2023-07-22T22:06:28.973Z,13.02
2023-07-22T22:08:57.106Z,7.32
2023-07-22T22:11:26.735Z,8.38
2023-07-22T22:13:54.933Z,8.27
2023-07-22T22:16:22.991Z,10.20
2023-07-22T22:18:51.027Z,7.22
2023-07-22T22:21:19.036Z,9.52
2023-07-22T22:23:47.026Z,8.52
2023-07-22T22:26:15.119Z,8.52
2023-07-22T22:28:44.475Z,8.57
2023-07-22T22:31:12.595Z,9.98
2023-07-22T22:33:40.644Z,10.63
2023-07-22T22:36:08.797Z,8.90
2023-07-22T22:38:36.844Z,8.60
2023-07-22T22:41:05.096Z,11.82
2023-07-22T22:43:33.183Z,9.07
2023-07-22T22:46:02.499Z,11.20
2023-07-22T22:48:30.482Z,11.93
2023-07-22T22:50:58.485Z,8.45
2023-07-22T22:53:26.492Z,8.48
2023-07-22T22:55:54.485Z,12.50
2023-07-22T22:58:22.866Z,9.95
2023-07-22T23:00:50.881Z,11.32
2023-07-22T23:03:20.328Z,8.73
2023-07-22T23:05:48.369Z,9.00
2023-07-22T23:08:16.477Z,8.70
2023-07-22T23:10:47.513Z,7.88
2023-07-22T23:13:15.579Z,9.38
2023-07-22T23:15:43.778Z,8.73
2023-07-22T23:18:11.774Z,10.95
2023-07-22T23:20:41.155Z,11.48
2023-07-22T23:23:09.175Z,8.02
2023-07-22T23:25:37.195Z,10.07
2023-07-22T23:28:05.267Z,9.15
2023-07-22T23:30:33.211Z,10.32
2023-07-22T23:33:01.243Z,10.07
2023-07-22T23:35:29.239Z,10.85
2023-07-22T23:37:58.736Z,12.88
2023-07-22T23:40:26.714Z,10.32
2023-07-22T23:42:54.814Z,11.00
2023-07-22T23:45:22.765Z,12.93
2023-07-22T23:47:50.908Z,9.23
2023-07-22T23:50:19.065Z,9.65
2023-07-22T23:52:47.066Z,11.90
2023-07-22T23:55:16.612Z,8.38
2023-07-22T23:57:44.615Z,10.05
